| time (UTC) | temp C | wind direction | speed KPH | gust KPH | rain 1hr cm | rain 24hr cm | rain mn cm | humidity % | barometer mb |
| 20260906233039 | 17 | 338 | 3.2 | 12.9 | 0.00 | 0.30 | 0.05 | 77 | 1015.4 |
| 20260906231535 | 17 | 292 | 4.8 | 11.3 | 0.00 | 0.30 | 0.05 | 77 | 1015.5 |
| 20260906230039 | 17 | 290 | 6.4 | 11.3 | 0.00 | 0.30 | 0.05 | 79 | 1015.8 |
| 20260906224540 | 17 | 292 | 8.0 | 12.9 | 0.00 | 0.30 | 0.05 | 81 | 1015.9 |
| 20260906223040 | 17 | 327 | 4.8 | 9.7 | 0.00 | 0.30 | 0.05 | 80 | 1016.1 |
| 20260906221540 | 17 | 43 | 4.8 | 12.9 | 0.00 | 0.30 | 0.05 | 80 | 1016.0 |
| 20260906220036 | 17 | 51 | 8.0 | 16.1 | 0.00 | 0.30 | 0.05 | 79 | 1015.9 |
| 20260906214542 | 17 | 60 | 8.0 | 16.1 | 0.00 | 0.30 | 0.05 | 79 | 1016.0 |
| 20260906213040 | 17 | 47 | 9.7 | 17.7 | 0.00 | 0.30 | 0.05 | 79 | 1016.0 |
| 20260906211539 | 17 | 58 | 11.3 | 24.1 | 0.00 | 0.30 | 0.05 | 79 | 1016.0 |
| 20260906210043 | 17 | 54 | 14.5 | 19.3 | 0.00 | 0.30 | 0.05 | 78 | 1015.9 |
| 20260906204539 | 17 | 46 | 12.9 | 19.3 | 0.00 | 0.30 | 0.05 | 78 | 1016.0 |
| 20260906203038 | 17 | 53 | 14.5 | 20.9 | 0.00 | 0.30 | 0.05 | 78 | 1015.9 |
| 20260906201538 | 17 | 55 | 14.5 | 22.5 | 0.00 | 0.30 | 0.05 | 79 | 1016.1 |
| 20260906200039 | 17 | 60 | 9.7 | 19.3 | 0.00 | 0.30 | 0.05 | 79 | 1016.2 |
| 20260906194539 | 17 | 41 | 11.3 | 19.3 | 0.00 | 0.30 | 0.05 | 77 | 1016.3 |
| 20260906193041 | 17 | 15 | 14.5 | 20.9 | 0.00 | 0.30 | 0.05 | 77 | 1016.2 |
| 20260906191535 | 17 | 66 | 16.1 | 25.7 | 0.00 | 0.30 | 0.05 | 76 | 1016.3 |
| 20260906190042 | 17 | 55 | 19.3 | 33.8 | 0.00 | 0.30 | 0.05 | 75 | 1016.3 |
| 20260906184540 | 17 | 47 | 19.3 | 29.0 | 0.00 | 0.30 | 0.05 | 77 | 1016.2 |
| 20260906183047 | 16 | 50 | 12.9 | 29.0 | 0.03 | 0.30 | 0.05 | 79 | 1016.6 |
| 20260906181544 | 16 | 52 | 11.3 | 30.6 | 0.03 | 0.30 | 0.05 | 83 | 1016.4 |
| 20260906180041 | 15 | 55 | 19.3 | 25.7 | 0.03 | 0.30 | 0.05 | 85 | 1016.6 |
| 20260906174536 | 14 | 61 | 20.9 | 27.4 | 0.03 | 0.30 | 0.05 | 93 | 1016.5 |
| 20260906173039 | 13 | 342 | 3.2 | 4.8 | 0.00 | 0.28 | 0.03 | 93 | 1018.1 |
| 20260906171541 | 13 | 292 | 6.4 | 11.3 | 0.00 | 0.28 | 0.03 | 92 | 1018.5 |
| 20260906170038 | 13 | 245 | 1.6 | 3.2 | 0.00 | 0.28 | 0.03 | 92 | 1018.4 |
| 20260906164541 | 13 | 38 | 0.0 | 3.2 | 0.00 | 0.28 | 0.03 | 92 | 1018.3 |
| 20260906163038 | 13 | 37 | 1.6 | 8.0 | 0.00 | 0.28 | 0.03 | 93 | 1018.4 |
| 20260906161539 | 13 | 21 | 4.8 | 8.0 | 0.00 | 0.28 | 0.03 | 93 | 1018.2 |
| 20260906160041 | 12 | 340 | 4.8 | 12.9 | 0.00 | 0.28 | 0.03 | 93 | 1018.2 |
| 20260906154537 | 12 | 306 | 8.0 | 19.3 | 0.00 | 0.28 | 0.03 | 92 | 1018.6 |
| 20260906153039 | 12 | 271 | 8.0 | 20.9 | 0.00 | 0.28 | 0.03 | 91 | 1018.9 |
| 20260906151544 | 12 | 308 | 11.3 | 19.3 | 0.00 | 0.28 | 0.03 | 90 | 1018.9 |
| 20260906150040 | 12 | 273 | 16.1 | 24.1 | 0.00 | 0.28 | 0.03 | 89 | 1019.1 |
| 20260906144539 | 13 | 275 | 11.3 | 30.6 | 0.00 | 0.28 | 0.03 | 88 | 1019.5 |
| 20260906143038 | 14 | 284 | 3.2 | 9.7 | 0.00 | 0.28 | 0.03 | 89 | 1019.2 |
| 20260906141536 | 14 | 49 | 9.7 | 16.1 | 0.00 | 0.28 | 0.03 | 89 | 1018.6 |
| 20260906140049 | 14 | 39 | 6.4 | 9.7 | 0.00 | 0.28 | 0.03 | 88 | 1018.8 |
| 20260906134537 | 15 | 327 | 3.2 | 12.9 | 0.00 | 0.41 | 0.03 | 87 | 1018.8 |
| 20260906133041 | 14 | 48 | 14.5 | 24.1 | 0.00 | 0.41 | 0.03 | 89 | 1018.1 |
| 20260906131541 | 13 | 54 | 12.9 | 19.3 | 0.00 | 0.41 | 0.03 | 90 | 1018.4 |
| 20260906130042 | 13 | 46 | 6.4 | 20.9 | 0.00 | 0.41 | 0.03 | 90 | 1018.6 |
| 20260906124540 | 13 | 56 | 14.5 | 20.9 | 0.00 | 0.41 | 0.03 | 90 | 1018.6 |
| 20260906123043 | 13 | 45 | 12.9 | 22.5 | 0.00 | 0.41 | 0.03 | 91 | 1018.5 |
| 20260906121542 | 13 | 39 | 14.5 | 24.1 | 0.00 | 0.41 | 0.03 | 91 | 1018.4 |
| 20260906120039 | 13 | 65 | 11.3 | 19.3 | 0.00 | 0.41 | 0.03 | 91 | 1018.6 |
| 20260906114542 | 13 | 327 | 6.4 | 19.3 | 0.00 | 0.41 | 0.03 | 90 | 1018.8 |
| 20260906113050 | 13 | 36 | 12.9 | 20.9 | 0.00 | 0.41 | 0.03 | 90 | 1018.6 |
| 20260906111542 | 13 | 28 | 16.1 | 25.7 | 0.00 | 0.41 | 0.03 | 89 | 1018.5 |
| 20260906110040 | 13 | 30 | 16.1 | 22.5 | 0.00 | 0.41 | 0.03 | 89 | 1018.5 |
| 20260906104540 | 13 | 36 | 12.9 | 22.5 | 0.00 | 0.41 | 0.03 | 88 | 1018.7 |
| 20260906103050 | 13 | 38 | 16.1 | 29.0 | 0.00 | 0.41 | 0.03 | 88 | 1018.7 |
| 20260906101546 | 13 | 29 | 17.7 | 25.7 | 0.00 | 0.41 | 0.03 | 88 | 1018.8 |
| 20260906100044 | 13 | 34 | 16.1 | 29.0 | 0.00 | 0.41 | 0.03 | 89 | 1018.9 |
| 20260906094539 | 13 | 40 | 9.7 | 24.1 | 0.00 | 0.41 | 0.03 | 88 | 1018.7 |
| 20260906093042 | 13 | 14 | 11.3 | 22.5 | 0.00 | 0.41 | 0.03 | 87 | 1018.7 |
| 20260906091542 | 13 | 16 | 14.5 | 27.4 | 0.00 | 0.41 | 0.03 | 87 | 1019.0 |
| 20260906090043 | 13 | 346 | 12.9 | 24.1 | 0.00 | 0.41 | 0.03 | 87 | 1019.4 |
| 20260906084541 | 13 | 335 | 11.3 | 19.3 | 0.00 | 0.41 | 0.03 | 89 | 1019.8 |
| 20260906083043 | 13 | 17 | 9.7 | 27.4 | 0.00 | 0.41 | 0.03 | 87 | 1019.9 |
| 20260906081540 | 13 | 314 | 8.0 | 19.3 | 0.00 | 0.41 | 0.03 | 88 | 1019.7 |
| 20260906080039 | 13 | 327 | 9.7 | 22.5 | 0.00 | 0.41 | 0.03 | 88 | 1019.5 |
| 20260906074542 | 13 | 34 | 8.0 | 24.1 | 0.00 | 0.41 | 0.03 | 87 | 1019.4 |
| 20260906073038 | 13 | 360 | 12.9 | 24.1 | 0.00 | 0.41 | 0.03 | 87 | 1019.5 |
| 20260906071537 | 13 | 331 | 11.3 | 22.5 | 0.03 | 0.41 | 0.03 | 86 | 1019.5 |
| 20260906070040 | 14 | 336 | 12.9 | 29.0 | 0.03 | 0.41 | 0.03 | 86 | 1019.5 |
| 20260906064538 | 13 | 314 | 8.0 | 17.7 | 0.03 | 0.41 | 0.03 | 87 | 1020.3 |
| 20260906063036 | 13 | 343 | 8.0 | 27.4 | 0.03 | 0.41 | 0.03 | 87 | 1020.5 |
| 20260906061539 | 13 | 51 | 12.9 | 27.4 | 0.00 | 0.38 | 0.00 | 88 | 1020.0 |
| 20260906060036 | 13 | 47 | 11.3 | 22.5 | 0.00 | 0.38 | 0.00 | 88 | 1020.1 |
| 20260906054538 | 13 | 30 | 11.3 | 25.7 | 0.05 | 0.38 | 0.38 | 87 | 1020.2 |
| 20260906053037 | 13 | 11 | 17.7 | 27.4 | 0.05 | 0.38 | 0.38 | 86 | 1019.8 |
| 20260906051538 | 13 | 9 | 14.5 | 25.7 | 0.05 | 0.38 | 0.38 | 86 | 1019.9 |
| 20260906050035 | 13 | 65 | 9.7 | 20.9 | 0.05 | 0.38 | 0.38 | 86 | 1019.7 |
| 20260906044539 | 13 | 19 | 12.9 | 24.1 | 0.00 | 0.33 | 0.33 | 85 | 1019.8 |
| 20260906043036 | 13 | 28 | 9.7 | 24.1 | 0.00 | 0.33 | 0.33 | 86 | 1019.9 |
| 20260906041540 | 13 | 329 | 11.3 | 32.2 | 0.20 | 0.33 | 0.33 | 86 | 1019.3 |
| 20260906040037 | 13 | 26 | 12.9 | 27.4 | 0.20 | 0.33 | 0.33 | 85 | 1019.2 |
| 20260906034535 | 13 | 11 | 9.7 | 24.1 | 0.20 | 0.33 | 0.33 | 85 | 1019.5 |
| 20260906033038 | 14 | 331 | 17.7 | 24.1 | 0.20 | 0.33 | 0.33 | 81 | 1019.8 |
| 20260906031540 | 16 | 336 | 12.9 | 25.7 | 0.00 | 0.13 | 0.13 | 70 | 1020.5 |
| 20260906030038 | 15 | 36 | 9.7 | 30.6 | 0.00 | 0.13 | 0.13 | 70 | 1018.9 |
| 20260906024538 | 15 | 60 | 12.9 | 24.1 | 0.00 | 0.13 | 0.13 | 70 | 1018.4 |
| 20260906023045 | 16 | 20 | 20.9 | 37.0 | 0.00 | 0.13 | 0.13 | 70 | 1018.0 |
| 20260906021544 | 16 | 46 | 22.5 | 35.4 | 0.00 | 0.13 | 0.13 | 68 | 1018.0 |
| 20260906020036 | 16 | 54 | 20.9 | 29.0 | 0.00 | 0.13 | 0.13 | 66 | 1018.0 |
| 20260906014546 | 17 | 31 | 17.7 | 27.4 | 0.00 | 0.13 | 0.13 | 65 | 1018.0 |
| 20260906013044 | 17 | 36 | 12.9 | 24.1 | 0.00 | 0.13 | 0.13 | 62 | 1018.1 |
| 20260906011539 | 18 | 40 | 19.3 | 24.1 | 0.00 | 0.13 | 0.13 | 60 | 1018.0 |
| 20260906010036 | 18 | 45 | 19.3 | 27.4 | 0.00 | 0.13 | 0.13 | 59 | 1018.1 |
| 20260906004538 | 19 | 52 | 20.9 | 30.6 | 0.00 | 0.13 | 0.13 | 58 | 1018.2 |
| 20260906003037 | 20 | 48 | 22.5 | 30.6 | 0.00 | 0.13 | 0.13 | 55 | 1018.2 |
| 20260906001542 | 20 | 57 | 20.9 | 33.8 | 0.00 | 0.13 | 0.13 | 54 | 1018.2 |
| 20260906000040 | 21 | 53 | 17.7 | 24.1 | 0.00 | 0.13 | 0.13 | 52 | 1018.2 |
| 20260905234541 | 22 | 36 | 20.9 | 27.4 | 0.00 | 0.13 | 0.13 | 49 | 1018.5 |